Time;durP1;ratioP1;P1;durP2;ratioP2;P2;SDS_P1;SDS_P2;PMS_P1;PMS_P2;Temp;Humidity;BMP_temperature;BMP_pressure;BME280_temperature;BME280_humidity;BME280_pressure;Samples;Min_cycle;Max_cycle;Signal;HPM_P1;HPM_P2
2023/09/27 00:04:45;;;;;;;9.40;5.10;;;;;;;;;;5015214;23;20080;-69
2023/09/27 00:10:13;;;;;;;7.95;4.72;;;;;;;;;;5017121;28;20029;-66
2023/09/27 00:15:42;;;;;;;9.30;5.28;;;;;;;;;;5018692;28;20102;-66
2023/09/27 00:18:07;;;;;;;6.60;4.35;;;;;;;;;;5036428;28;20026;-66
2023/09/27 00:23:35;;;;;;;;;;;;;;;;;;5012892;28;20113;-65
2023/09/27 00:29:03;;;;;;;8.10;4.78;;;;;;;;;;5016354;28;20508;-66
2023/09/27 00:34:31;;;;;;;7.70;4.97;;;;;;;;;;5015798;28;20278;-65
2023/09/27 00:36:56;;;;;;;15.23;5.30;;;;;;;;;;5015493;28;20457;-65
2023/09/27 00:42:24;;;;;;;7.88;4.43;;;;;;;;;;5012112;22;20105;-80
2023/09/27 00:56:16;;;;;;;6.82;4.18;;;;;;;;;;5015606;28;19920;-88
2023/09/27 01:04:14;;;;;;;8.43;4.53;;;;;;;;;;5012547;28;20048;-66
2023/09/27 01:09:41;;;;;;;7.25;4.00;;;;;;;;;;5015229;28;20021;-65
2023/09/27 01:15:10;;;;;;;5.25;3.58;;;;;;;;;;5026464;22;20509;-82
2023/09/27 01:20:37;;;;;;;9.25;4.40;;;;;;;;;;4995620;28;20394;-82
2023/09/27 01:23:03;;;;;;;7.43;4.47;;;;;;;;;;5004734;28;20018;-82
2023/09/27 01:28:33;;;;;;;10.70;4.95;;;;;;;;;;5015149;28;20101;-82
2023/09/27 01:34:01;;;;;;;;;;;;;;;;;;5015583;28;20385;-82
2023/09/27 01:36:26;;;;;;;9.30;4.80;;;;;;;;;;5027806;28;20276;-82
2023/09/27 01:41:54;;;;;;;8.05;4.50;;;;;;;;;;5007276;28;20506;-82
2023/09/27 01:47:22;;;;;;;8.05;4.18;;;;;;;;;;5014292;28;20084;-82
2023/09/27 01:49:47;;;;;;;6.53;4.10;;;;;;;;;;5014482;28;20018;-82
2023/09/27 02:00:36;;;;;;;9.48;4.22;;;;;;;;;;4975733;28;20417;-69
2023/09/27 02:03:01;;;;;;;9.48;4.63;;;;;;;;;;4975256;28;20018;-69
2023/09/27 02:08:30;;;;;;;;;;;;;;;;;;4976234;28;20029;-69
2023/09/27 02:13:57;;;;;;;13.73;4.90;;;;;;;;;;4971555;28;20089;-65
2023/09/27 02:16:22;;;;;;;6.87;4.50;;;;;;;;;;4974823;28;20438;-65
2023/09/27 02:27:32;;;;;;;7.60;4.13;;;;;;;;;;5550401;22;20057;-79
2023/09/27 02:29:58;;;;;;;6.33;3.63;;;;;;;;;;5012781;28;20030;-79
2023/09/27 02:35:25;;;;;;;6.65;4.18;;;;;;;;;;5013248;28;20075;-79
2023/09/27 02:40:53;;;;;;;;;;;;;;;;;;5014523;28;20029;-79
2023/09/27 02:43:18;;;;;;;9.63;4.22;;;;;;;;;;5011779;28;19913;-79
2023/09/27 02:48:47;;;;;;;;;;;;;;;;;;5014266;28;20290;-79
2023/09/27 02:54:15;;;;;;;6.60;4.00;;;;;;;;;;5020742;23;20057;-66
2023/09/27 02:59:43;;;;;;;;;;;;;;;;;;5013599;28;20607;-65
2023/09/27 03:02:08;;;;;;;6.40;3.80;;;;;;;;;;5013332;28;20282;-65
2023/09/27 03:07:38;;;;;;;;;;;;;;;;;;5014217;28;20045;-69
2023/09/27 03:15:38;;;;;;;7.55;4.68;;;;;;;;;;5011018;28;19921;-65
2023/09/27 03:21:12;;;;;;;8.60;3.90;;;;;;;;;;5431301;22;20063;-69
2023/09/27 03:26:40;;;;;;;8.13;4.03;;;;;;;;;;4978613;28;20085;-69
2023/09/27 03:29:05;;;;;;;7.53;3.97;;;;;;;;;;4978243;28;20421;-69
2023/09/27 03:34:33;;;;;;;;;;;;;;;;;;4978494;28;20112;-69
2023/09/27 03:40:03;;;;;;;8.02;3.70;;;;;;;;;;5453609;23;20149;-69
2023/09/27 03:42:29;;;;;;;9.15;4.18;;;;;;;;;;4997895;28;20022;-65
2023/09/27 03:47:57;;;;;;;;;;;;;;;;;;4998173;28;20468;-65
2023/09/27 03:53:25;;;;;;;8.52;4.25;;;;;;;;;;4996928;28;20040;-69
2023/09/27 03:58:58;;;;;;;7.60;4.38;;;;;;;;;;4996761;28;20480;-65
2023/09/27 04:01:23;;;;;;;16.40;5.05;;;;;;;;;;4996654;28;20038;-65
2023/09/27 04:03:48;;;;;;;6.40;4.07;;;;;;;;;;4997276;28;20030;-65
2023/09/27 04:06:13;;;;;;;11.43;4.70;;;;;;;;;;4997051;28;20045;-65
2023/09/27 04:08:39;;;;;;;16.43;4.50;;;;;;;;;;4996960;28;20064;-65
2023/09/27 04:11:06;;;;;;;8.37;4.97;;;;;;;;;;4996833;28;20323;-65
2023/09/27 04:13:32;;;;;;;10.88;4.75;;;;;;;;;;4997109;28;20267;-65
2023/09/27 04:15:58;;;;;;;10.18;4.68;;;;;;;;;;4997069;28;20089;-65
2023/09/27 04:18:23;;;;;;;7.38;4.22;;;;;;;;;;4996999;28;20019;-65
2023/09/27 04:20:48;;;;;;;6.90;4.27;;;;;;;;;;4996476;28;20030;-65
2023/09/27 04:23:13;;;;;;;10.30;4.38;;;;;;;;;;4997032;28;20244;-65
2023/09/27 04:25:39;;;;;;;6.13;3.90;;;;;;;;;;4996508;28;20030;-65
2023/09/27 04:28:04;;;;;;;9.63;4.90;;;;;;;;;;4996899;28;20025;-65
2023/09/27 04:30:30;;;;;;;7.70;4.38;;;;;;;;;;4996487;28;20283;-65
2023/09/27 04:32:55;;;;;;;7.10;4.10;;;;;;;;;;4996484;28;20066;-65
2023/09/27 04:35:20;;;;;;;8.83;4.30;;;;;;;;;;4995688;28;20015;-65
2023/09/27 04:37:45;;;;;;;10.02;4.10;;;;;;;;;;4996480;28;20073;-65
2023/09/27 04:40:11;;;;;;;6.93;3.93;;;;;;;;;;4995797;28;20092;-65
2023/09/27 04:42:40;;;;;;;6.22;3.88;;;;;;;;;;4996007;28;20022;-65
2023/09/27 04:45:06;;;;;;;6.68;3.63;;;;;;;;;;4996504;28;20394;-65
2023/09/27 04:47:31;;;;;;;7.50;4.50;;;;;;;;;;4996252;28;20022;-65
2023/09/27 04:49:57;;;;;;;8.60;4.37;;;;;;;;;;4996222;28;20031;-65
2023/09/27 04:52:22;;;;;;;10.05;4.57;;;;;;;;;;4996098;28;20279;-65
2023/09/27 04:54:47;;;;;;;8.73;4.13;;;;;;;;;;4996119;28;20027;-65
2023/09/27 04:57:13;;;;;;;10.43;4.10;;;;;;;;;;4996369;28;20096;-65
2023/09/27 04:59:38;;;;;;;5.57;3.53;;;;;;;;;;4996043;28;20409;-65
2023/09/27 05:02:03;;;;;;;6.13;3.70;;;;;;;;;;4996077;28;20065;-65
2023/09/27 05:04:28;;;;;;;21.90;4.23;;;;;;;;;;4995937;28;20015;-65
2023/09/27 05:06:54;;;;;;;5.90;4.00;;;;;;;;;;4995965;28;20720;-65
2023/09/27 05:09:19;;;;;;;11.40;4.10;;;;;;;;;;4995887;28;20724;-65
2023/09/27 05:11:46;;;;;;;9.40;4.22;;;;;;;;;;4995771;28;20026;-65
2023/09/27 05:14:12;;;;;;;8.55;4.45;;;;;;;;;;4995749;28;20054;-65
2023/09/27 05:16:37;;;;;;;6.05;3.92;;;;;;;;;;4995966;28;20053;-65
2023/09/27 05:19:02;;;;;;;7.47;4.00;;;;;;;;;;4995694;28;20069;-65
2023/09/27 05:21:27;;;;;;;5.50;3.50;;;;;;;;;;4995654;28;20037;-65
2023/09/27 05:23:53;;;;;;;5.10;3.03;;;;;;;;;;4995610;28;20306;-65
2023/09/27 05:26:18;;;;;;;4.90;3.80;;;;;;;;;;4995564;28;20018;-65
2023/09/27 05:28:43;;;;;;;5.53;3.80;;;;;;;;;;4995553;28;20033;-65
2023/09/27 05:31:09;;;;;;;5.80;3.50;;;;;;;;;;4995674;28;20462;-65
2023/09/27 05:33:34;;;;;;;6.15;3.38;;;;;;;;;;4995444;28;20019;-65
2023/09/27 05:35:59;;;;;;;5.17;3.30;;;;;;;;;;4995423;28;20466;-65
2023/09/27 05:38:24;;;;;;;7.30;3.60;;;;;;;;;;4995354;28;20025;-65
2023/09/27 05:40:50;;;;;;;6.40;3.87;;;;;;;;;;4995091;28;20280;-65
2023/09/27 05:43:15;;;;;;;5.40;3.57;;;;;;;;;;4995253;28;20015;-65
2023/09/27 05:45:40;;;;;;;10.38;4.03;;;;;;;;;;4995245;28;20247;-65
2023/09/27 05:48:05;;;;;;;7.47;3.63;;;;;;;;;;4995127;28;20022;-65
2023/09/27 05:50:31;;;;;;;5.28;3.47;;;;;;;;;;4995226;28;20244;-65
2023/09/27 05:52:56;;;;;;;7.45;3.47;;;;;;;;;;4994978;28;20018;-65
2023/09/27 05:55:21;;;;;;;8.50;4.17;;;;;;;;;;4995020;28;20018;-66
2023/09/27 05:57:47;;;;;;;6.85;3.92;;;;;;;;;;4995200;28;20239;-65
2023/09/27 06:00:15;;;;;;;6.43;3.30;;;;;;;;;;4995190;28;20025;-66
2023/09/27 06:02:40;;;;;;;10.02;3.72;;;;;;;;;;4994792;28;20025;-65
2023/09/27 06:05:06;;;;;;;6.03;3.42;;;;;;;;;;4995085;28;20109;-65
2023/09/27 06:07:31;;;;;;;5.35;3.40;;;;;;;;;;4994786;28;20081;-65
2023/09/27 06:09:56;;;;;;;4.50;3.00;;;;;;;;;;4994735;28;20030;-66
2023/09/27 06:12:22;;;;;;;5.37;2.90;;;;;;;;;;4994629;28;20331;-66
2023/09/27 06:14:50;;;;;;;6.40;3.50;;;;;;;;;;4994909;28;20252;-66
2023/09/27 06:17:17;;;;;;;5.72;3.67;;;;;;;;;;4994681;28;20045;-71
2023/09/27 06:19:42;;;;;;;6.78;3.80;;;;;;;;;;4994870;28;20026;-71
2023/09/27 06:22:07;;;;;;;7.20;4.10;;;;;;;;;;4994555;28;20030;-71
2023/09/27 06:24:32;;;;;;;6.67;3.70;;;;;;;;;;4994559;28;20255;-71
2023/09/27 06:26:58;;;;;;;5.83;3.90;;;;;;;;;;4994421;28;20437;-71
2023/09/27 06:29:23;;;;;;;5.55;3.35;;;;;;;;;;4994670;28;20862;-71
2023/09/27 06:31:52;;;;;;;6.18;3.75;;;;;;;;;;4994309;28;20564;-71
2023/09/27 06:34:17;;;;;;;8.50;3.90;;;;;;;;;;4994324;28;20474;-71
2023/09/27 06:36:43;;;;;;;10.75;4.43;;;;;;;;;;4994557;28;20029;-71
2023/09/27 06:39:12;;;;;;;7.50;4.22;;;;;;;;;;4994341;28;20033;-71
2023/09/27 06:41:38;;;;;;;5.95;4.03;;;;;;;;;;4993960;28;20506;-71
2023/09/27 06:44:04;;;;;;;8.53;3.90;;;;;;;;;;4994248;28;20038;-71
2023/09/27 06:46:29;;;;;;;5.78;3.70;;;;;;;;;;4994412;28;20322;-71
2023/09/27 06:48:55;;;;;;;9.03;4.27;;;;;;;;;;4994152;28;20022;-71
2023/09/27 06:51:20;;;;;;;7.80;3.37;;;;;;;;;;4994078;28;20486;-71
2023/09/27 06:53:45;;;;;;;8.50;3.97;;;;;;;;;;4994091;28;20585;-71
2023/09/27 06:56:10;;;;;;;6.40;3.70;;;;;;;;;;4994060;28;20019;-71
2023/09/27 06:58:35;;;;;;;7.50;3.97;;;;;;;;;;4993579;28;20029;-70
2023/09/27 07:01:01;;;;;;;9.07;4.30;;;;;;;;;;4994290;28;20042;-71
2023/09/27 07:03:28;;;;;;;7.73;3.90;;;;;;;;;;4994232;28;20452;-71
2023/09/27 07:05:53;;;;;;;6.70;3.90;;;;;;;;;;4993942;28;20015;-71
2023/09/27 07:08:19;;;;;;;10.30;4.22;;;;;;;;;;4994171;28;20105;-71
2023/09/27 07:10:46;;;;;;;9.18;4.85;;;;;;;;;;4994079;28;20546;-71
2023/09/27 07:13:11;;;;;;;10.70;4.88;;;;;;;;;;4992597;28;20097;-71
2023/09/27 07:15:37;;;;;;;8.90;4.50;;;;;;;;;;4994110;28;20386;-71
2023/09/27 07:18:03;;;;;;;9.23;4.65;;;;;;;;;;4993887;28;20026;-71
2023/09/27 07:20:32;;;;;;;9.52;4.38;;;;;;;;;;4994101;28;20073;-71
2023/09/27 07:22:57;;;;;;;7.60;4.60;;;;;;;;;;4994022;28;20037;-71
2023/09/27 07:25:28;;;;;;;9.43;4.37;;;;;;;;;;4993845;28;20026;-71
2023/09/27 07:27:54;;;;;;;8.88;4.65;;;;;;;;;;4993765;28;20651;-71
2023/09/27 07:30:25;;;;;;;7.47;3.72;;;;;;;;;;4994011;28;20105;-71
2023/09/27 07:32:51;;;;;;;8.23;4.60;;;;;;;;;;4993715;28;20023;-71
2023/09/27 07:35:18;;;;;;;8.48;4.28;;;;;;;;;;4993666;28;20022;-71
2023/09/27 07:37:47;;;;;;;11.35;4.07;;;;;;;;;;4993654;28;20019;-71
2023/09/27 07:40:13;;;;;;;10.00;4.15;;;;;;;;;;4993424;28;20101;-71
2023/09/27 07:42:42;;;;;;;6.63;3.85;;;;;;;;;;4993638;28;20022;-71
2023/09/27 07:45:15;;;;;;;6.95;3.53;;;;;;;;;;4993519;28;20022;-71
2023/09/27 07:47:41;;;;;;;6.95;3.83;;;;;;;;;;4993582;28;20101;-71
2023/09/27 07:50:06;;;;;;;7.68;3.60;;;;;;;;;;4993639;28;20454;-71
2023/09/27 07:52:31;;;;;;;8.73;3.60;;;;;;;;;;4993565;28;20026;-71
2023/09/27 07:54:58;;;;;;;13.13;4.15;;;;;;;;;;4993468;28;20054;-71
2023/09/27 07:57:23;;;;;;;11.05;4.78;;;;;;;;;;4993755;28;20045;-71
2023/09/27 07:59:48;;;;;;;11.53;5.13;;;;;;;;;;4993447;28;20068;-71
2023/09/27 08:02:14;;;;;;;14.37;5.50;;;;;;;;;;4993473;28;20244;-69
2023/09/27 08:04:40;;;;;;;16.08;4.75;;;;;;;;;;4993700;28;20033;-69
2023/09/27 08:07:05;;;;;;;27.17;5.10;;;;;;;;;;4993674;28;20470;-69
2023/09/27 08:09:30;;;;;;;16.33;4.07;;;;;;;;;;4993385;28;20611;-69
2023/09/27 08:11:55;;;;;;;25.33;4.23;;;;;;;;;;4996170;28;20018;-69
2023/09/27 08:14:21;;;;;;;25.87;4.40;;;;;;;;;;4996931;28;20593;-69
2023/09/27 08:16:46;;;;;;;21.00;4.35;;;;;;;;;;4997108;28;20019;-71
2023/09/27 08:19:12;;;;;;;10.73;3.57;;;;;;;;;;4996839;28;20011;-69
2023/09/27 08:21:37;;;;;;;9.90;3.90;;;;;;;;;;4996778;28;20260;-69
2023/09/27 08:24:02;;;;;;;11.60;3.90;;;;;;;;;;4997009;28;20026;-69
2023/09/27 08:26:27;;;;;;;9.77;3.92;;;;;;;;;;4996971;28;20382;-69
2023/09/27 08:28:53;;;;;;;14.10;4.33;;;;;;;;;;4996659;28;20386;-69
2023/09/27 08:31:18;;;;;;;10.83;3.93;;;;;;;;;;4996740;28;20018;-69
2023/09/27 08:33:43;;;;;;;9.60;4.07;;;;;;;;;;4996603;28;20740;-69
2023/09/27 08:36:08;;;;;;;6.70;4.30;;;;;;;;;;4996636;28;20015;-65
2023/09/27 08:38:34;;;;;;;14.13;4.55;;;;;;;;;;4996507;28;20750;-65
2023/09/27 08:40:59;;;;;;;7.70;4.53;;;;;;;;;;4996302;28;20097;-65
2023/09/27 08:43:26;;;;;;;9.90;4.80;;;;;;;;;;4996314;28;20284;-65
2023/09/27 08:45:51;;;;;;;7.45;4.55;;;;;;;;;;4996343;28;20051;-65
2023/09/27 08:48:20;;;;;;;10.40;4.25;;;;;;;;;;4996268;28;20026;-65
2023/09/27 08:50:46;;;;;;;12.38;4.40;;;;;;;;;;4996288;28;20023;-65
2023/09/27 08:53:11;;;;;;;7.93;4.30;;;;;;;;;;4996406;28;20055;-64
2023/09/27 08:55:37;;;;;;;7.45;3.75;;;;;;;;;;4996420;28;20381;-64
2023/09/27 08:58:03;;;;;;;10.77;4.20;;;;;;;;;;4996388;28;20022;-65
2023/09/27 09:00:28;;;;;;;8.32;3.90;;;;;;;;;;4996045;28;20472;-64
2023/09/27 09:02:57;;;;;;;6.70;3.75;;;;;;;;;;4995972;28;20034;-65
2023/09/27 09:05:23;;;;;;;8.98;4.45;;;;;;;;;;4995941;28;20033;-65
2023/09/27 09:07:50;;;;;;;8.23;4.18;;;;;;;;;;4995917;28;20030;-65
2023/09/27 09:10:18;;;;;;;7.18;3.90;;;;;;;;;;4995814;28;20073;-65
2023/09/27 09:12:45;;;;;;;8.77;3.95;;;;;;;;;;4996002;28;20147;-65
2023/09/27 09:15:15;;;;;;;6.65;3.78;;;;;;;;;;4995750;28;20065;-65
2023/09/27 09:17:47;;;;;;;7.78;3.97;;;;;;;;;;4995815;28;20077;-65
2023/09/27 09:20:17;;;;;;;7.63;4.10;;;;;;;;;;4995655;28;20022;-67
2023/09/27 09:22:43;;;;;;;6.28;3.80;;;;;;;;;;4995639;28;20026;-65
2023/09/27 09:25:08;;;;;;;11.63;3.70;;;;;;;;;;4995862;28;20049;-67
2023/09/27 09:27:33;;;;;;;6.33;3.53;;;;;;;;;;4995894;28;20390;-67
2023/09/27 09:30:01;;;;;;;6.43;4.20;;;;;;;;;;4995527;28;20026;-65
2023/09/27 09:32:29;;;;;;;7.90;3.20;;;;;;;;;;4995647;28;20037;-65
2023/09/27 09:34:54;;;;;;;6.50;3.03;;;;;;;;;;4995394;28;20033;-65
2023/09/27 09:37:23;;;;;;;5.95;3.28;;;;;;;;;;4995361;28;20018;-65
2023/09/27 09:39:49;;;;;;;5.65;3.33;;;;;;;;;;4995072;28;20022;-65
2023/09/27 09:42:29;;;;;;;8.70;3.10;;;;;;;;;;4995547;28;20387;-64
2023/09/27 09:45:00;;;;;;;9.57;3.13;;;;;;;;;;4995242;28;20031;-68
2023/09/27 09:47:27;;;;;;;5.68;2.97;;;;;;;;;;4995213;28;20033;-65
2023/09/27 09:49:53;;;;;;;5.47;3.00;;;;;;;;;;4995111;28;20026;-65
2023/09/27 09:52:19;;;;;;;6.28;2.97;;;;;;;;;;4995271;28;20033;-66
2023/09/27 09:54:49;;;;;;;7.88;3.10;;;;;;;;;;4995080;28;20028;-66
2023/09/27 09:57:14;;;;;;;4.28;2.63;;;;;;;;;;4994928;28;20105;-67
2023/09/27 10:00:00;;;;;;;7.28;3.08;;;;;;;;;;4995187;28;20105;-67
2023/09/27 10:02:27;;;;;;;5.80;3.22;;;;;;;;;;4994624;28;20217;-66
2023/09/27 10:04:55;;;;;;;7.45;2.80;;;;;;;;;;4994889;28;20022;-64
2023/09/27 10:07:20;;;;;;;5.38;2.78;;;;;;;;;;4994795;28;20061;-65
2023/09/27 10:09:47;;;;;;;6.33;2.87;;;;;;;;;;4995004;28;20038;-67
2023/09/27 10:12:13;;;;;;;5.55;2.72;;;;;;;;;;4994919;28;20272;-66
2023/09/27 10:14:38;;;;;;;6.60;2.75;;;;;;;;;;4994753;28;20482;-67
2023/09/27 10:17:04;;;;;;;4.43;2.58;;;;;;;;;;4994607;28;20026;-66
2023/09/27 10:19:29;;;;;;;5.57;3.00;;;;;;;;;;4994561;28;20023;-65
2023/09/27 10:22:04;;;;;;;5.33;2.73;;;;;;;;;;4994794;28;20030;-64
2023/09/27 10:24:29;;;;;;;8.40;2.63;;;;;;;;;;4994748;28;20724;-65
2023/09/27 10:26:54;;;;;;;8.93;2.70;;;;;;;;;;4994473;28;20133;-65
2023/09/27 10:29:20;;;;;;;5.40;2.70;;;;;;;;;;4994699;28;20225;-64
2023/09/27 10:31:58;;;;;;;5.43;2.80;;;;;;;;;;4994271;28;20280;-66
2023/09/27 10:34:27;;;;;;;5.15;2.60;;;;;;;;;;4993993;28;20061;-67
2023/09/27 10:36:55;;;;;;;5.47;2.75;;;;;;;;;;4994588;28;20466;-67
2023/09/27 10:39:21;;;;;;;5.53;2.78;;;;;;;;;;4994329;28;20015;-67
2023/09/27 10:41:47;;;;;;;6.15;2.80;;;;;;;;;;4994015;28;20073;-66
2023/09/27 10:44:13;;;;;;;7.15;2.60;;;;;;;;;;4994150;28;20033;-67
2023/09/27 10:46:45;;;;;;;6.00;2.80;;;;;;;;;;4994153;28;20035;-67
2023/09/27 10:49:10;;;;;;;5.75;2.90;;;;;;;;;;4994246;28;20045;-66
2023/09/27 10:51:36;;;;;;;6.15;2.75;;;;;;;;;;4994419;28;20466;-67
2023/09/27 10:54:08;;;;;;;6.22;2.92;;;;;;;;;;4994324;28;20074;-66
2023/09/27 10:56:34;;;;;;;10.57;3.03;;;;;;;;;;4994157;28;20015;-66
2023/09/27 10:58:59;;;;;;;6.90;2.70;;;;;;;;;;4993986;28;20114;-66
2023/09/27 11:01:25;;;;;;;8.23;2.60;;;;;;;;;;4993990;28;20058;-67
2023/09/27 11:03:57;;;;;;;8.73;2.65;;;;;;;;;;4994015;28;20101;-66
2023/09/27 11:06:22;;;;;;;5.18;2.30;;;;;;;;;;4994202;28;20022;-66
2023/09/27 11:08:47;;;;;;;3.92;2.50;;;;;;;;;;4993925;28;20433;-66
2023/09/27 11:11:12;;;;;;;5.70;2.30;;;;;;;;;;4993875;28;20114;-67
2023/09/27 11:13:44;;;;;;;6.20;2.00;;;;;;;;;;4993980;28;20045;-67
2023/09/27 11:16:14;;;;;;;4.40;2.45;;;;;;;;;;4994158;28;20271;-67
2023/09/27 11:18:44;;;;;;;5.00;2.75;;;;;;;;;;4994076;28;20026;-66
2023/09/27 11:21:09;;;;;;;6.07;2.03;;;;;;;;;;4994034;28;20077;-66
2023/09/27 11:23:51;;;;;;;5.32;2.70;;;;;;;;;;4993894;28;20034;-67
2023/09/27 11:26:17;;;;;;;4.35;2.53;;;;;;;;;;4994032;28;20030;-66
2023/09/27 11:28:43;;;;;;;5.25;2.38;;;;;;;;;;4993945;28;20032;-67
2023/09/27 11:31:08;;;;;;;7.07;2.53;;;;;;;;;;4993898;28;20093;-66
2023/09/27 11:33:33;;;;;;;7.57;2.77;;;;;;;;;;4993800;28;20088;-66
2023/09/27 11:36:03;;;;;;;4.68;2.10;;;;;;;;;;4993958;28;20022;-66
2023/09/27 11:38:28;;;;;;;3.85;2.22;;;;;;;;;;4993678;28;20354;-66
2023/09/27 11:40:53;;;;;;;4.27;2.20;;;;;;;;;;4993520;28;20066;-66
2023/09/27 11:43:19;;;;;;;3.25;2.10;;;;;;;;;;4993860;28;20038;-66
2023/09/27 11:45:45;;;;;;;4.70;2.10;;;;;;;;;;4996447;28;20030;-66
2023/09/27 11:48:10;;;;;;;5.28;2.38;;;;;;;;;;4997676;28;20033;-66
2023/09/27 11:50:35;;;;;;;4.22;2.20;;;;;;;;;;4997448;28;20532;-66
2023/09/27 11:53:00;;;;;;;4.30;2.10;;;;;;;;;;4997252;28;20465;-66
2023/09/27 11:55:26;;;;;;;5.03;2.33;;;;;;;;;;4997299;28;20014;-66
2023/09/27 11:57:56;;;;;;;5.70;2.42;;;;;;;;;;4997503;28;20026;-66
2023/09/27 12:00:22;;;;;;;4.45;2.30;;;;;;;;;;4997212;28;20093;-66
2023/09/27 12:02:47;;;;;;;6.78;2.22;;;;;;;;;;4997137;28;20523;-66
2023/09/27 12:05:13;;;;;;;6.40;2.23;;;;;;;;;;4997404;28;20053;-72
2023/09/27 12:07:39;;;;;;;4.97;2.00;;;;;;;;;;4997331;28;20026;-71
2023/09/27 12:10:05;;;;;;;4.63;2.50;;;;;;;;;;4997320;28;20449;-72
2023/09/27 12:12:30;;;;;;;5.03;2.10;;;;;;;;;;4996908;28;20019;-72
2023/09/27 12:14:55;;;;;;;5.40;2.25;;;;;;;;;;4997182;28;20359;-71
2023/09/27 12:17:21;;;;;;;6.00;2.30;;;;;;;;;;4997123;28;20041;-71
2023/09/27 12:19:46;;;;;;;3.92;2.10;;;;;;;;;;4997077;28;20378;-72
2023/09/27 12:22:12;;;;;;;4.22;2.00;;;;;;;;;;4997014;28;20022;-72
2023/09/27 12:24:37;;;;;;;5.63;2.28;;;;;;;;;;4996741;28;20026;-71
2023/09/27 12:27:02;;;;;;;2.90;2.00;;;;;;;;;;4996761;28;20026;-72
2023/09/27 12:29:28;;;;;;;7.80;2.53;;;;;;;;;;4996682;28;20037;-72
2023/09/27 12:31:54;;;;;;;3.35;1.98;;;;;;;;;;4996548;28;20747;-72
2023/09/27 12:34:19;;;;;;;5.63;2.10;;;;;;;;;;4996549;28;20049;-72
2023/09/27 12:36:44;;;;;;;5.50;2.10;;;;;;;;;;4996642;28;20030;-71
2023/09/27 12:39:10;;;;;;;6.68;1.98;;;;;;;;;;4996744;28;20023;-72
2023/09/27 12:41:35;;;;;;;4.05;2.03;;;;;;;;;;4996267;28;20134;-72
2023/09/27 12:44:00;;;;;;;5.70;2.70;;;;;;;;;;4996350;28;20046;-72
2023/09/27 12:46:26;;;;;;;3.40;2.00;;;;;;;;;;4996537;28;20254;-72
2023/09/27 12:48:51;;;;;;;13.68;2.25;;;;;;;;;;4996543;28;20256;-72
2023/09/27 12:51:16;;;;;;;4.60;1.83;;;;;;;;;;4996198;28;20089;-72
2023/09/27 12:53:41;;;;;;;3.27;1.77;;;;;;;;;;4996188;28;20343;-71
2023/09/27 12:56:07;;;;;;;3.05;1.80;;;;;;;;;;4995713;28;20236;-71
2023/09/27 12:58:33;;;;;;;3.57;1.70;;;;;;;;;;4996401;28;20029;-71
2023/09/27 13:00:58;;;;;;;3.47;1.60;;;;;;;;;;4996355;28;20095;-72
2023/09/27 13:03:23;;;;;;;4.03;2.20;;;;;;;;;;4996074;28;20050;-72
2023/09/27 13:05:48;;;;;;;3.95;1.88;;;;;;;;;;4996274;28;20101;-72
2023/09/27 13:08:14;;;;;;;4.13;1.90;;;;;;;;;;4995931;28;20089;-72
2023/09/27 13:10:39;;;;;;;4.10;1.80;;;;;;;;;;4996030;28;20034;-72
2023/09/27 13:13:04;;;;;;;4.68;1.70;;;;;;;;;;4995910;28;20076;-72
2023/09/27 13:15:29;;;;;;;7.37;2.10;;;;;;;;;;4996169;28;20427;-66
2023/09/27 13:17:55;;;;;;;3.80;1.65;;;;;;;;;;4995790;28;20489;-66
2023/09/27 13:20:20;;;;;;;4.38;2.15;;;;;;;;;;4995729;28;20497;-66
2023/09/27 13:22:47;;;;;;;3.38;2.15;;;;;;;;;;4995701;28;20077;-66
2023/09/27 13:25:12;;;;;;;3.63;2.08;;;;;;;;;;4995679;28;20026;-66
2023/09/27 13:27:39;;;;;;;4.50;1.70;;;;;;;;;;4995656;28;20032;-66
2023/09/27 13:30:06;;;;;;;5.43;1.83;;;;;;;;;;4995831;28;20022;-66
2023/09/27 13:32:31;;;;;;;5.38;2.00;;;;;;;;;;4995347;28;20033;-66
2023/09/27 13:34:56;;;;;;;4.43;1.73;;;;;;;;;;4995700;28;20019;-66
2023/09/27 13:37:22;;;;;;;2.97;1.60;;;;;;;;;;4995693;28;20049;-66
2023/09/27 13:39:47;;;;;;;10.13;2.15;;;;;;;;;;4995056;28;20401;-66
2023/09/27 13:42:12;;;;;;;2.80;1.70;;;;;;;;;;4995302;28;20065;-66
2023/09/27 13:44:37;;;;;;;4.65;1.52;;;;;;;;;;4995464;28;20275;-66
2023/09/27 13:47:03;;;;;;;3.83;2.00;;;;;;;;;;4995316;28;20102;-66
2023/09/27 13:49:29;;;;;;;3.97;1.90;;;;;;;;;;4995404;28;20025;-66
2023/09/27 13:51:54;;;;;;;3.60;1.55;;;;;;;;;;4995096;28;20437;-66
2023/09/27 13:54:19;;;;;;;1.90;1.40;;;;;;;;;;4995109;28;20386;-66
2023/09/27 13:56:45;;;;;;;4.43;1.90;;;;;;;;;;4995040;28;20524;-66
2023/09/27 13:59:10;;;;;;;4.45;1.83;;;;;;;;;;4994968;28;20019;-66
2023/09/27 14:01:35;;;;;;;3.07;1.90;;;;;;;;;;4994922;28;20019;-66
2023/09/27 14:04:01;;;;;;;4.17;1.87;;;;;;;;;;4994883;28;20252;-66
2023/09/27 14:06:26;;;;;;;8.65;1.90;;;;;;;;;;4995092;28;20027;-66
2023/09/27 14:08:51;;;;;;;4.07;2.03;;;;;;;;;;4993898;28;20018;-66
2023/09/27 14:11:17;;;;;;;3.08;1.88;;;;;;;;;;4994949;28;20367;-66
2023/09/27 14:13:45;;;;;;;5.72;1.77;;;;;;;;;;4994653;28;20485;-66
2023/09/27 14:16:11;;;;;;;3.38;1.77;;;;;;;;;;4994624;28;20022;-67
2023/09/27 14:18:36;;;;;;;3.03;1.73;;;;;;;;;;4994758;28;20144;-66
2023/09/27 14:21:02;;;;;;;3.47;1.60;;;;;;;;;;4994838;28;20420;-66
2023/09/27 14:23:27;;;;;;;2.67;1.77;;;;;;;;;;4994543;28;20529;-66
2023/09/27 14:25:52;;;;;;;6.30;2.10;;;;;;;;;;4994894;28;20540;-66
2023/09/27 14:28:17;;;;;;;6.17;1.90;;;;;;;;;;4994405;28;20109;-67
2023/09/27 14:30:43;;;;;;;4.50;1.75;;;;;;;;;;4994671;28;20065;-66
2023/09/27 14:33:08;;;;;;;3.93;1.57;;;;;;;;;;4994370;28;20509;-66
2023/09/27 14:35:36;;;;;;;4.30;1.87;;;;;;;;;;4994374;28;20018;-66
2023/09/27 14:38:04;;;;;;;3.70;1.67;;;;;;;;;;4994173;28;20600;-66
2023/09/27 14:40:29;;;;;;;5.18;1.58;;;;;;;;;;4993130;28;20050;-67
2023/09/27 14:42:55;;;;;;;5.47;1.70;;;;;;;;;;4993803;28;20030;-67
2023/09/27 14:45:20;;;;;;;3.17;1.67;;;;;;;;;;4985904;28;20367;-67
2023/09/27 14:47:49;;;;;;;4.13;1.50;;;;;;;;;;4987233;28;20036;-67
2023/09/27 14:50:14;;;;;;;2.33;1.60;;;;;;;;;;4993049;28;20354;-67
2023/09/27 14:52:39;;;;;;;3.08;1.38;;;;;;;;;;4992687;28;21698;-67
2023/09/27 14:55:05;;;;;;;2.23;1.37;;;;;;;;;;4993037;28;20026;-67
2023/09/27 14:57:30;;;;;;;5.20;1.50;;;;;;;;;;4992906;28;20018;-67
2023/09/27 14:59:56;;;;;;;3.42;1.70;;;;;;;;;;4992125;28;20049;-68
2023/09/27 15:02:21;;;;;;;3.50;1.60;;;;;;;;;;4993137;28;20033;-67
2023/09/27 15:04:46;;;;;;;2.10;1.37;;;;;;;;;;4992994;28;20018;-67
2023/09/27 15:07:11;;;;;;;2.28;1.38;;;;;;;;;;4993378;28;20025;-67
2023/09/27 15:09:37;;;;;;;5.63;1.80;;;;;;;;;;4992888;28;20014;-67
2023/09/27 15:12:03;;;;;;;4.53;1.77;;;;;;;;;;4992731;28;20470;-67
2023/09/27 15:14:28;;;;;;;5.10;1.45;;;;;;;;;;4993051;28;20030;-68
2023/09/27 15:16:53;;;;;;;3.45;1.75;;;;;;;;;;4992941;28;20459;-67
2023/09/27 15:19:19;;;;;;;5.07;1.50;;;;;;;;;;4993581;28;20049;-67
2023/09/27 15:21:44;;;;;;;4.73;2.03;;;;;;;;;;4996892;28;20417;-67
2023/09/27 15:24:10;;;;;;;5.70;1.60;;;;;;;;;;4997005;28;20045;-67
2023/09/27 15:26:35;;;;;;;3.75;1.98;;;;;;;;;;4996624;28;20817;-67
2023/09/27 15:29:00;;;;;;;4.83;1.70;;;;;;;;;;4996866;28;20041;-67
2023/09/27 15:31:26;;;;;;;3.30;1.80;;;;;;;;;;4996194;28;20053;-67
2023/09/27 15:33:51;;;;;;;4.03;1.55;;;;;;;;;;4996720;28;20107;-67
2023/09/27 15:36:16;;;;;;;4.83;1.57;;;;;;;;;;4996564;28;20022;-68
2023/09/27 15:38:43;;;;;;;3.93;1.87;;;;;;;;;;4996608;28;20034;-68
2023/09/27 15:46:38;;;;;;;3.25;1.83;;;;;;;;;;5011865;28;20473;-68
2023/09/27 15:49:03;;;;;;;5.13;1.88;;;;;;;;;;5015630;28;20555;-74
2023/09/27 15:51:29;;;;;;;5.28;1.80;;;;;;;;;;5015934;28;20026;-74
2023/09/27 15:53:54;;;;;;;2.87;1.60;;;;;;;;;;5014154;28;20017;-74
2023/09/27 15:56:19;;;;;;;7.43;1.80;;;;;;;;;;5016388;28;20025;-74
2023/09/27 15:58:44;;;;;;;7.45;1.70;;;;;;;;;;5016245;28;20076;-74
2023/09/27 16:01:10;;;;;;;2.53;1.43;;;;;;;;;;5016231;28;20055;-74
2023/09/27 16:03:35;;;;;;;7.50;1.73;;;;;;;;;;5016465;28;20317;-74
2023/09/27 16:06:00;;;;;;;2.70;1.50;;;;;;;;;;5015119;28;20022;-74
2023/09/27 16:08:26;;;;;;;3.80;1.95;;;;;;;;;;5016258;28;20389;-74
2023/09/27 16:10:52;;;;;;;3.47;1.60;;;;;;;;;;5016265;28;20105;-74
2023/09/27 16:13:20;;;;;;;4.20;1.70;;;;;;;;;;5016116;28;20093;-75
2023/09/27 16:15:46;;;;;;;3.88;1.80;;;;;;;;;;5008287;28;20069;-74
2023/09/27 16:18:12;;;;;;;2.40;1.70;;;;;;;;;;5015914;28;20033;-74
2023/09/27 16:20:37;;;;;;;2.83;1.50;;;;;;;;;;5014733;28;20022;-74
2023/09/27 16:23:04;;;;;;;3.83;2.05;;;;;;;;;;5016085;28;20421;-74
2023/09/27 16:25:29;;;;;;;2.03;1.48;;;;;;;;;;5015928;28;20107;-74
2023/09/27 16:27:55;;;;;;;3.90;1.63;;;;;;;;;;5015915;28;20532;-74
2023/09/27 16:30:20;;;;;;;3.20;2.07;;;;;;;;;;5015468;28;20025;-74
2023/09/27 16:32:45;;;;;;;4.03;2.00;;;;;;;;;;5015004;28;20291;-74
2023/09/27 16:35:11;;;;;;;3.30;1.88;;;;;;;;;;5015640;28;20030;-74
2023/09/27 16:37:37;;;;;;;3.90;1.70;;;;;;;;;;5015848;28;20064;-73
2023/09/27 16:40:03;;;;;;;4.30;2.13;;;;;;;;;;5014408;28;20010;-74
2023/09/27 16:42:28;;;;;;;6.05;1.88;;;;;;;;;;5015712;28;20025;-74
2023/09/27 16:44:54;;;;;;;10.82;2.53;;;;;;;;;;4999304;28;20050;-73
2023/09/27 16:47:19;;;;;;;4.97;2.20;;;;;;;;;;4996087;28;20478;-74
2023/09/27 16:49:45;;;;;;;4.70;2.30;;;;;;;;;;4996060;28;20022;-74